SIA528 WSSS-VOMM
Flight info
| Callsign | SIA528 |
|---|---|
| Flight time | 3h 37m |
| Altitude | 38000 |
| Route | AROSO5B AROSO Y513 KALIL Y504 BILIK G582 PUGER P574 GIRNA V6 AVMOR AVMOR2K |
| Aircraft | B77W/H-SDE1E2E3FGHIJ4J5M1P2RWXYZ/LB1D1 |
Departure
| Time | 2026-05-07 13:31 |
|---|---|
| Airport | Singapore Changi Airport (WSSS) |
Arrival
| Time | 2026-05-07 17:09 |
|---|---|
| Airport | Chennai International Airport (VOMM) |
| Time | Latitude | Longitude | Altitude | Speed | Heading |
|---|---|---|---|---|---|
| 2026-05-07 13:02 | 1.35222 | 103.98366 | 35 ft | 0 kts | 114° |
| 2026-05-07 13:18 | 1.35223 | 103.98363 | 35 ft | 3 kts | 113° |
| 2026-05-07 13:18 | 1.35232 | 103.98338 | 35 ft | 4 kts | 99° |
| 2026-05-07 13:19 | 1.35233 | 103.98312 | 34 ft | 4 kts | 79° |
| 2026-05-07 13:19 | 1.35224 | 103.98287 | 31 ft | 4 kts | 53° |
| 2026-05-07 13:19 | 1.35205 | 103.98269 | 33 ft | 4 kts | 30° |
| 2026-05-07 13:19 | 1.35191 | 103.98261 | 33 ft | 0 kts | 23° |
| 2026-05-07 13:22 | 1.35195 | 103.98263 | 33 ft | 3 kts | 23° |
| 2026-05-07 13:22 | 1.35229 | 103.98278 | 35 ft | 7 kts | 24° |
| 2026-05-07 13:23 | 1.35274 | 103.98297 | 35 ft | 7 kts | 22° |
| 2026-05-07 13:23 | 1.35329 | 103.98309 | 35 ft | 10 kts | 359° |
| 2026-05-07 13:23 | 1.35420 | 103.98285 | 35 ft | 15 kts | 345° |
| 2026-05-07 13:23 | 1.35520 | 103.98303 | 35 ft | 15 kts | 22° |
| 2026-05-07 13:24 | 1.35616 | 103.98342 | 35 ft | 15 kts | 22° |
| 2026-05-07 13:24 | 1.35711 | 103.98382 | 35 ft | 15 kts | 23° |
| 2026-05-07 13:24 | 1.35806 | 103.98423 | 35 ft | 15 kts | 23° |
| 2026-05-07 13:24 | 1.35902 | 103.98462 | 35 ft | 15 kts | 22° |
| 2026-05-07 13:25 | 1.35997 | 103.98503 | 35 ft | 15 kts | 23° |
| 2026-05-07 13:25 | 1.36093 | 103.98544 | 35 ft | 15 kts | 23° |
| 2026-05-07 13:25 | 1.36188 | 103.98584 | 35 ft | 15 kts | 22° |
| 2026-05-07 13:25 | 1.36284 | 103.98624 | 35 ft | 15 kts | 23° |
| 2026-05-07 13:26 | 1.36379 | 103.98664 | 35 ft | 15 kts | 22° |
| 2026-05-07 13:26 | 1.36474 | 103.98703 | 35 ft | 15 kts | 22° |
| 2026-05-07 13:26 | 1.36569 | 103.98743 | 35 ft | 15 kts | 23° |
| 2026-05-07 13:26 | 1.36664 | 103.98784 | 35 ft | 15 kts | 23° |
| 2026-05-07 13:27 | 1.36759 | 103.98825 | 35 ft | 15 kts | 30° |
| 2026-05-07 13:27 | 1.36791 | 103.98913 | 35 ft | 15 kts | 111° |
| 2026-05-07 13:27 | 1.36749 | 103.99009 | 35 ft | 15 kts | 114° |
| 2026-05-07 13:27 | 1.36708 | 103.99105 | 35 ft | 15 kts | 112° |
| 2026-05-07 13:28 | 1.36667 | 103.99201 | 35 ft | 15 kts | 114° |
| 2026-05-07 13:28 | 1.36625 | 103.99297 | 35 ft | 15 kts | 113° |
| 2026-05-07 13:28 | 1.36584 | 103.99393 | 35 ft | 15 kts | 113° |
| 2026-05-07 13:28 | 1.36543 | 103.99490 | 35 ft | 15 kts | 113° |
| 2026-05-07 13:29 | 1.36502 | 103.99586 | 35 ft | 15 kts | 113° |
| 2026-05-07 13:29 | 1.36461 | 103.99682 | 35 ft | 15 kts | 113° |
| 2026-05-07 13:29 | 1.36419 | 103.99778 | 35 ft | 15 kts | 113° |
| 2026-05-07 13:29 | 1.36372 | 103.99859 | 35 ft | 14 kts | 135° |
| 2026-05-07 13:30 | 1.36280 | 103.99883 | 35 ft | 14 kts | 171° |
| 2026-05-07 13:30 | 1.36184 | 103.99886 | 35 ft | 14 kts | 189° |
| 2026-05-07 13:30 | 1.36119 | 103.99865 | 35 ft | 0 kts | 201° |
| 2026-05-07 13:30 | 1.36002 | 103.99816 | 35 ft | 55 kts | 202° |
| 2026-05-07 13:31 | 1.35397 | 103.99562 | 35 ft | 131 kts | 203° |
| 2026-05-07 13:31 | 1.34357 | 103.99147 | 118 ft | 181 kts | 204° |
| 2026-05-07 13:31 | 1.33183 | 103.98602 | 735 ft | 190 kts | 204° |
| 2026-05-07 13:31 | 1.31937 | 103.98052 | 1561 ft | 202 kts | 202° |
| 2026-05-07 13:32 | 1.30620 | 103.97500 | 2186 ft | 217 kts | 202° |
| 2026-05-07 13:32 | 1.29126 | 103.96885 | 2477 ft | 245 kts | 201° |
| 2026-05-07 13:32 | 1.27405 | 103.96557 | 2745 ft | 258 kts | 175° |
| 2026-05-07 13:32 | 1.25693 | 103.97105 | 3026 ft | 265 kts | 147° |
| 2026-05-07 13:33 | 1.24373 | 103.98417 | 3013 ft | 271 kts | 121° |
| 2026-05-07 13:33 | 1.23580 | 104.00112 | 3031 ft | 269 kts | 112° |
| 2026-05-07 13:33 | 1.22929 | 104.01860 | 3050 ft | 266 kts | 110° |
| 2026-05-07 13:33 | 1.22313 | 104.03575 | 3380 ft | 260 kts | 110° |
| 2026-05-07 13:34 | 1.21698 | 104.05289 | 4077 ft | 265 kts | 110° |
| 2026-05-07 13:34 | 1.20434 | 104.08843 | 5550 ft | 274 kts | 110° |
| 2026-05-07 13:34 | 1.19934 | 104.10645 | 6232 ft | 275 kts | 93° |
| 2026-05-07 13:35 | 1.20366 | 104.12519 | 6933 ft | 279 kts | 59° |
| 2026-05-07 13:35 | 1.21741 | 104.13837 | 7651 ft | 284 kts | 27° |
| 2026-05-07 13:35 | 1.23672 | 104.14238 | 8374 ft | 290 kts | 355° |
| 2026-05-07 13:35 | 1.25561 | 104.13557 | 9120 ft | 295 kts | 323° |
| 2026-05-07 13:36 | 1.26897 | 104.12012 | 9872 ft | 295 kts | 301° |
| 2026-05-07 13:36 | 1.28161 | 104.10421 | 10517 ft | 295 kts | 325° |
| 2026-05-07 13:36 | 1.29949 | 104.09452 | 11250 ft | 294 kts | 336° |
| 2026-05-07 13:36 | 1.31795 | 104.08499 | 12003 ft | 303 kts | 332° |
| 2026-05-07 13:37 | 1.33640 | 104.07406 | 12763 ft | 313 kts | 330° |
| 2026-05-07 13:37 | 1.35495 | 104.06224 | 13521 ft | 318 kts | 329° |
| 2026-05-07 13:37 | 1.37353 | 104.05003 | 14209 ft | 321 kts | 328° |
| 2026-05-07 13:37 | 1.39220 | 104.03768 | 14901 ft | 323 kts | 328° |
| 2026-05-07 13:38 | 1.41137 | 104.02586 | 15594 ft | 324 kts | 335° |
| 2026-05-07 13:38 | 1.43183 | 104.01628 | 16313 ft | 325 kts | 341° |
| 2026-05-07 13:38 | 1.45326 | 104.00874 | 17048 ft | 328 kts | 345° |
| 2026-05-07 13:38 | 1.47518 | 104.00191 | 17809 ft | 332 kts | 346° |
| 2026-05-07 13:39 | 1.49717 | 103.99518 | 18513 ft | 338 kts | 346° |
| 2026-05-07 13:39 | 1.51982 | 103.98816 | 19183 ft | 344 kts | 345° |
| 2026-05-07 13:39 | 1.54279 | 103.98092 | 19873 ft | 349 kts | 345° |
| 2026-05-07 13:39 | 1.56602 | 103.97349 | 20594 ft | 353 kts | 345° |
| 2026-05-07 13:40 | 1.58953 | 103.96592 | 21303 ft | 357 kts | 345° |
| 2026-05-07 13:40 | 1.61327 | 103.95824 | 22041 ft | 360 kts | 345° |
| 2026-05-07 13:40 | 1.63720 | 103.95049 | 22790 ft | 363 kts | 345° |
| 2026-05-07 13:40 | 1.66133 | 103.94267 | 23528 ft | 366 kts | 345° |
| 2026-05-07 13:41 | 1.68565 | 103.93479 | 24175 ft | 369 kts | 345° |
| 2026-05-07 13:41 | 1.71017 | 103.92684 | 24839 ft | 372 kts | 344° |
| 2026-05-07 13:41 | 1.73463 | 103.91833 | 25507 ft | 375 kts | 338° |
| 2026-05-07 13:41 | 1.75723 | 103.90497 | 26181 ft | 380 kts | 324° |
| 2026-05-07 13:42 | 1.77668 | 103.88692 | 26893 ft | 384 kts | 311° |
| 2026-05-07 13:42 | 1.79324 | 103.86588 | 27624 ft | 385 kts | 308° |
| 2026-05-07 13:42 | 1.80932 | 103.84442 | 28361 ft | 387 kts | 308° |
| 2026-05-07 13:42 | 1.82546 | 103.82286 | 29108 ft | 388 kts | 308° |
| 2026-05-07 13:43 | 1.84173 | 103.80136 | 29895 ft | 387 kts | 308° |
| 2026-05-07 13:43 | 1.85808 | 103.78000 | 30559 ft | 386 kts | 308° |
| 2026-05-07 13:43 | 1.87443 | 103.75881 | 31218 ft | 384 kts | 308° |
| 2026-05-07 13:43 | 1.89068 | 103.73778 | 31903 ft | 380 kts | 308° |
| 2026-05-07 13:44 | 1.90655 | 103.71725 | 32528 ft | 378 kts | 308° |
| 2026-05-07 13:44 | 1.92258 | 103.69645 | 33049 ft | 377 kts | 308° |
| 2026-05-07 13:44 | 1.93865 | 103.67558 | 33464 ft | 380 kts | 308° |
| 2026-05-07 13:44 | 1.95482 | 103.65457 | 33867 ft | 383 kts | 308° |
| 2026-05-07 13:45 | 1.97091 | 103.63332 | 34229 ft | 384 kts | 304° |
| 2026-05-07 13:45 | 1.98484 | 103.61020 | 34344 ft | 396 kts | 296° |
| 2026-05-07 13:45 | 1.99631 | 103.58456 | 34268 ft | 411 kts | 293° |
| 2026-05-07 13:45 | 2.00762 | 103.55781 | 34339 ft | 423 kts | 292° |
| 2026-05-07 13:46 | 2.01911 | 103.53035 | 34421 ft | 434 kts | 292° |
| 2026-05-07 13:46 | 2.03093 | 103.50216 | 34508 ft | 445 kts | 293° |
| 2026-05-07 13:46 | 2.04310 | 103.47329 | 34598 ft | 456 kts | 293° |
| 2026-05-07 13:47 | 2.06827 | 103.41410 | 34755 ft | 476 kts | 293° |
| 2026-05-07 13:47 | 2.09480 | 103.35207 | 34899 ft | 494 kts | 293° |
| 2026-05-07 13:48 | 2.12220 | 103.28811 | 35150 ft | 505 kts | 293° |
| 2026-05-07 13:48 | 2.13606 | 103.25575 | 35412 ft | 506 kts | 293° |
| 2026-05-07 13:48 | 2.14990 | 103.22343 | 35772 ft | 505 kts | 293° |
| 2026-05-07 13:48 | 2.16368 | 103.19122 | 36168 ft | 503 kts | 293° |
| 2026-05-07 13:49 | 2.17741 | 103.15914 | 36579 ft | 501 kts | 293° |
| 2026-05-07 13:49 | 2.19111 | 103.12714 | 36956 ft | 499 kts | 293° |
| 2026-05-07 13:49 | 2.20474 | 103.09529 | 37309 ft | 498 kts | 293° |
| 2026-05-07 13:49 | 2.21834 | 103.06350 | 37651 ft | 497 kts | 293° |
| 2026-05-07 13:50 | 2.23196 | 103.03166 | 37800 ft | 500 kts | 293° |
| 2026-05-07 13:50 | 2.25934 | 102.96768 | 37842 ft | 499 kts | 293° |
| 2026-05-07 13:51 | 2.28640 | 102.90441 | 37842 ft | 492 kts | 293° |
| 2026-05-07 13:51 | 2.31330 | 102.84153 | 37862 ft | 491 kts | 293° |
| 2026-05-07 13:52 | 2.33998 | 102.77913 | 37859 ft | 491 kts | 293° |
| 2026-05-07 13:52 | 2.36687 | 102.71623 | 37852 ft | 493 kts | 293° |
| 2026-05-07 13:53 | 2.39387 | 102.65309 | 37863 ft | 495 kts | 293° |
| 2026-05-07 13:53 | 2.42099 | 102.58963 | 37855 ft | 497 kts | 293° |
| 2026-05-07 13:54 | 2.44819 | 102.52601 | 37861 ft | 498 kts | 293° |
| 2026-05-07 13:54 | 2.47545 | 102.46221 | 37852 ft | 499 kts | 293° |
| 2026-05-07 13:55 | 2.50273 | 102.39835 | 37857 ft | 499 kts | 294° |
| 2026-05-07 13:55 | 2.52987 | 102.33483 | 37851 ft | 500 kts | 294° |
| 2026-05-07 13:56 | 2.55723 | 102.27079 | 37848 ft | 501 kts | 294° |
| 2026-05-07 13:56 | 2.58460 | 102.20668 | 37854 ft | 501 kts | 294° |
| 2026-05-07 13:57 | 2.61200 | 102.14251 | 37848 ft | 502 kts | 294° |
| 2026-05-07 13:57 | 2.63939 | 102.07837 | 37851 ft | 501 kts | 293° |
| 2026-05-07 13:58 | 2.66672 | 102.01432 | 37836 ft | 500 kts | 294° |
| 2026-05-07 13:58 | 2.69400 | 101.95041 | 37830 ft | 499 kts | 294° |
| 2026-05-07 13:59 | 2.72120 | 101.88667 | 37832 ft | 498 kts | 294° |
| 2026-05-07 13:59 | 2.74818 | 101.82343 | 37827 ft | 497 kts | 294° |
| 2026-05-07 14:00 | 2.77532 | 101.75981 | 37824 ft | 497 kts | 294° |
| 2026-05-07 14:00 | 2.80243 | 101.69624 | 37833 ft | 497 kts | 294° |
| 2026-05-07 14:01 | 2.82957 | 101.63260 | 37835 ft | 498 kts | 294° |
| 2026-05-07 14:01 | 2.85679 | 101.56876 | 37853 ft | 499 kts | 294° |
| 2026-05-07 14:02 | 2.88408 | 101.50473 | 37852 ft | 501 kts | 294° |
| 2026-05-07 14:02 | 2.91143 | 101.44057 | 37851 ft | 502 kts | 294° |
| 2026-05-07 14:03 | 2.93884 | 101.37622 | 37853 ft | 503 kts | 294° |
| 2026-05-07 14:03 | 2.96628 | 101.31182 | 37849 ft | 503 kts | 294° |
| 2026-05-07 14:04 | 2.99371 | 101.24743 | 37855 ft | 503 kts | 294° |
| 2026-05-07 14:04 | 3.02092 | 101.18352 | 37853 ft | 503 kts | 294° |
| 2026-05-07 14:05 | 3.04831 | 101.11920 | 37857 ft | 502 kts | 294° |
| 2026-05-07 14:05 | 3.07568 | 101.05492 | 37857 ft | 502 kts | 294° |
| 2026-05-07 14:06 | 3.10305 | 100.99062 | 37853 ft | 502 kts | 294° |
| 2026-05-07 14:06 | 3.12579 | 100.93716 | 37854 ft | 502 kts | 294° |
| 2026-05-07 14:07 | 3.15314 | 100.87289 | 37858 ft | 502 kts | 294° |
| 2026-05-07 14:07 | 3.18049 | 100.80859 | 37855 ft | 502 kts | 294° |
| 2026-05-07 14:08 | 3.20784 | 100.74429 | 37855 ft | 502 kts | 294° |
| 2026-05-07 14:08 | 3.23518 | 100.68000 | 37855 ft | 502 kts | 294° |
| 2026-05-07 14:09 | 3.26252 | 100.61568 | 37861 ft | 502 kts | 294° |
| 2026-05-07 14:09 | 3.28986 | 100.55134 | 37852 ft | 502 kts | 294° |
| 2026-05-07 14:10 | 3.31701 | 100.48745 | 37858 ft | 502 kts | 294° |
| 2026-05-07 14:10 | 3.34451 | 100.42270 | 37857 ft | 502 kts | 294° |
| 2026-05-07 14:11 | 3.37182 | 100.35840 | 37855 ft | 502 kts | 294° |
| 2026-05-07 14:11 | 3.39907 | 100.29457 | 37851 ft | 502 kts | 295° |
| 2026-05-07 14:12 | 3.43147 | 100.23280 | 37860 ft | 501 kts | 300° |
| 2026-05-07 14:12 | 3.46548 | 100.17182 | 37864 ft | 502 kts | 300° |
| 2026-05-07 14:13 | 3.49938 | 100.11077 | 37859 ft | 502 kts | 300° |
| 2026-05-07 14:13 | 3.53305 | 100.04955 | 37860 ft | 502 kts | 299° |
| 2026-05-07 14:14 | 3.56662 | 99.98825 | 37857 ft | 502 kts | 299° |
| 2026-05-07 14:14 | 3.60016 | 99.92698 | 37854 ft | 502 kts | 299° |
| 2026-05-07 14:15 | 3.63368 | 99.86576 | 37853 ft | 502 kts | 299° |
| 2026-05-07 14:15 | 3.66720 | 99.80455 | 37856 ft | 501 kts | 299° |
| 2026-05-07 14:16 | 3.70066 | 99.74344 | 37851 ft | 500 kts | 299° |
| 2026-05-07 14:16 | 3.73380 | 99.68289 | 37850 ft | 499 kts | 299° |
| 2026-05-07 14:17 | 3.76708 | 99.62209 | 37861 ft | 497 kts | 299° |
| 2026-05-07 14:17 | 3.80029 | 99.56140 | 37849 ft | 497 kts | 299° |
| 2026-05-07 14:18 | 3.83346 | 99.50078 | 37859 ft | 497 kts | 299° |
| 2026-05-07 14:18 | 3.86669 | 99.44004 | 37863 ft | 497 kts | 299° |
| 2026-05-07 14:19 | 3.89997 | 99.37917 | 37859 ft | 499 kts | 299° |
| 2026-05-07 14:19 | 3.93335 | 99.31811 | 37864 ft | 501 kts | 299° |
| 2026-05-07 14:20 | 3.96682 | 99.25689 | 37862 ft | 502 kts | 299° |
| 2026-05-07 14:20 | 4.00038 | 99.19547 | 37862 ft | 503 kts | 299° |
| 2026-05-07 14:21 | 4.03374 | 99.13442 | 37860 ft | 503 kts | 299° |
| 2026-05-07 14:21 | 4.06737 | 99.07285 | 37877 ft | 504 kts | 300° |
| 2026-05-07 14:22 | 4.10104 | 99.01121 | 37870 ft | 505 kts | 300° |
| 2026-05-07 14:22 | 4.13473 | 98.94951 | 37870 ft | 505 kts | 300° |
| 2026-05-07 14:23 | 4.16845 | 98.88775 | 37872 ft | 505 kts | 300° |
| 2026-05-07 14:23 | 4.20216 | 98.82598 | 37868 ft | 505 kts | 300° |
| 2026-05-07 14:24 | 4.23587 | 98.76420 | 37869 ft | 505 kts | 300° |
| 2026-05-07 14:24 | 4.26934 | 98.70285 | 37872 ft | 505 kts | 299° |
| 2026-05-07 14:25 | 4.30296 | 98.64120 | 37868 ft | 503 kts | 299° |
| 2026-05-07 14:25 | 4.33646 | 98.57977 | 37861 ft | 502 kts | 299° |
| 2026-05-07 14:26 | 4.36988 | 98.51846 | 37867 ft | 500 kts | 299° |
| 2026-05-07 14:26 | 4.40318 | 98.45735 | 37864 ft | 499 kts | 299° |
| 2026-05-07 14:27 | 4.43647 | 98.39627 | 37863 ft | 499 kts | 299° |
| 2026-05-07 14:27 | 4.46948 | 98.33568 | 37879 ft | 499 kts | 299° |
| 2026-05-07 14:28 | 4.50271 | 98.27467 | 37873 ft | 499 kts | 299° |
| 2026-05-07 14:28 | 4.53594 | 98.21363 | 37874 ft | 499 kts | 299° |
| 2026-05-07 14:29 | 4.56915 | 98.15260 | 37878 ft | 499 kts | 299° |
| 2026-05-07 14:29 | 4.60234 | 98.09163 | 37876 ft | 498 kts | 299° |
| 2026-05-07 14:30 | 4.63552 | 98.03065 | 37883 ft | 498 kts | 299° |
| 2026-05-07 14:30 | 4.66868 | 97.96969 | 37885 ft | 498 kts | 299° |
| 2026-05-07 14:31 | 4.70183 | 97.90874 | 37888 ft | 497 kts | 299° |
| 2026-05-07 14:31 | 4.73469 | 97.84828 | 37895 ft | 497 kts | 299° |
| 2026-05-07 14:32 | 4.76776 | 97.78744 | 37892 ft | 497 kts | 299° |
| 2026-05-07 14:32 | 4.80079 | 97.72666 | 37903 ft | 496 kts | 299° |
| 2026-05-07 14:33 | 4.83380 | 97.66590 | 37900 ft | 496 kts | 299° |
| 2026-05-07 14:33 | 4.86677 | 97.60519 | 37888 ft | 496 kts | 299° |
| 2026-05-07 14:34 | 4.89975 | 97.54444 | 37896 ft | 496 kts | 299° |
| 2026-05-07 14:34 | 4.93276 | 97.48365 | 37910 ft | 497 kts | 299° |
| 2026-05-07 14:35 | 4.96556 | 97.42320 | 37908 ft | 497 kts | 299° |
| 2026-05-07 14:35 | 4.99860 | 97.36229 | 37886 ft | 497 kts | 299° |
| 2026-05-07 14:36 | 5.03162 | 97.30141 | 37888 ft | 497 kts | 299° |
| 2026-05-07 14:36 | 5.06461 | 97.24058 | 37897 ft | 496 kts | 299° |
| 2026-05-07 14:37 | 5.09759 | 97.17973 | 37899 ft | 496 kts | 298° |
| 2026-05-07 14:37 | 5.14702 | 97.08851 | 37888 ft | 496 kts | 298° |
| 2026-05-07 14:38 | 5.17996 | 97.02771 | 37895 ft | 496 kts | 298° |
| 2026-05-07 14:38 | 5.21268 | 96.96729 | 37898 ft | 496 kts | 298° |
| 2026-05-07 14:39 | 5.24559 | 96.90650 | 37896 ft | 496 kts | 298° |
| 2026-05-07 14:39 | 5.27850 | 96.84569 | 37896 ft | 496 kts | 298° |
| 2026-05-07 14:40 | 5.31144 | 96.78483 | 37885 ft | 496 kts | 298° |
| 2026-05-07 14:40 | 5.34439 | 96.72392 | 37887 ft | 497 kts | 298° |
| 2026-05-07 14:41 | 5.37744 | 96.66281 | 37886 ft | 498 kts | 298° |
| 2026-05-07 14:41 | 5.41052 | 96.60159 | 37887 ft | 499 kts | 298° |
| 2026-05-07 14:42 | 5.44364 | 96.54033 | 37885 ft | 500 kts | 298° |
| 2026-05-07 14:42 | 5.47679 | 96.47898 | 37877 ft | 500 kts | 298° |
| 2026-05-07 14:43 | 5.50994 | 96.41760 | 37877 ft | 500 kts | 299° |
| 2026-05-07 14:43 | 5.54306 | 96.35626 | 37877 ft | 500 kts | 299° |
| 2026-05-07 14:44 | 5.57617 | 96.29493 | 37876 ft | 499 kts | 299° |
| 2026-05-07 14:44 | 5.60925 | 96.23363 | 37874 ft | 499 kts | 299° |
| 2026-05-07 14:45 | 5.64229 | 96.17238 | 37874 ft | 499 kts | 299° |
| 2026-05-07 14:45 | 5.67534 | 96.11111 | 37874 ft | 499 kts | 299° |
| 2026-05-07 14:46 | 5.70840 | 96.04979 | 37865 ft | 500 kts | 298° |
| 2026-05-07 14:46 | 5.74157 | 95.98824 | 37876 ft | 502 kts | 298° |
| 2026-05-07 14:47 | 5.77487 | 95.92643 | 37875 ft | 504 kts | 298° |
| 2026-05-07 14:47 | 5.80828 | 95.86441 | 37874 ft | 506 kts | 298° |
| 2026-05-07 14:48 | 5.84153 | 95.80265 | 37871 ft | 506 kts | 298° |
| 2026-05-07 14:48 | 5.87503 | 95.74043 | 37863 ft | 507 kts | 298° |
| 2026-05-07 14:49 | 5.90852 | 95.67817 | 37868 ft | 506 kts | 298° |
| 2026-05-07 14:49 | 5.94200 | 95.61594 | 37864 ft | 506 kts | 298° |
| 2026-05-07 14:50 | 5.97541 | 95.55379 | 37867 ft | 505 kts | 298° |
| 2026-05-07 14:50 | 6.00882 | 95.49175 | 37868 ft | 504 kts | 299° |
| 2026-05-07 14:51 | 6.04286 | 95.43015 | 37864 ft | 504 kts | 299° |
| 2026-05-07 14:51 | 6.07703 | 95.36872 | 37871 ft | 504 kts | 299° |
| 2026-05-07 14:52 | 6.11109 | 95.30725 | 37876 ft | 503 kts | 299° |
| 2026-05-07 14:52 | 6.14504 | 95.24580 | 37870 ft | 503 kts | 299° |
| 2026-05-07 14:53 | 6.17895 | 95.18438 | 37858 ft | 502 kts | 299° |
| 2026-05-07 14:53 | 6.21282 | 95.12302 | 37873 ft | 502 kts | 299° |
| 2026-05-07 14:54 | 6.24670 | 95.06170 | 37868 ft | 502 kts | 299° |
| 2026-05-07 14:54 | 6.28069 | 95.00048 | 37871 ft | 501 kts | 299° |
| 2026-05-07 14:55 | 6.31465 | 94.93937 | 37868 ft | 501 kts | 300° |
| 2026-05-07 14:55 | 6.34857 | 94.87825 | 37871 ft | 500 kts | 300° |
| 2026-05-07 14:56 | 6.38241 | 94.81723 | 37867 ft | 500 kts | 300° |
| 2026-05-07 14:56 | 6.41625 | 94.75618 | 37871 ft | 500 kts | 300° |
| 2026-05-07 14:57 | 6.45006 | 94.69516 | 37872 ft | 500 kts | 300° |
| 2026-05-07 14:57 | 6.48373 | 94.63438 | 37869 ft | 501 kts | 300° |
| 2026-05-07 14:58 | 6.51769 | 94.57303 | 37868 ft | 503 kts | 300° |
| 2026-05-07 14:58 | 6.55172 | 94.51155 | 37873 ft | 503 kts | 299° |
| 2026-05-07 14:59 | 6.58573 | 94.45005 | 37868 ft | 503 kts | 299° |
| 2026-05-07 14:59 | 6.61799 | 94.38759 | 37869 ft | 503 kts | 295° |
| 2026-05-07 15:00 | 6.64669 | 94.32343 | 37874 ft | 503 kts | 294° |
| 2026-05-07 15:00 | 6.67507 | 94.25915 | 37872 ft | 502 kts | 294° |
| 2026-05-07 15:01 | 6.70361 | 94.19505 | 37870 ft | 502 kts | 294° |
| 2026-05-07 15:01 | 6.73229 | 94.13101 | 37873 ft | 502 kts | 295° |
| 2026-05-07 15:02 | 6.76097 | 94.06706 | 37871 ft | 501 kts | 295° |
| 2026-05-07 15:02 | 6.78960 | 94.00318 | 37871 ft | 501 kts | 295° |
| 2026-05-07 15:03 | 6.81337 | 93.95010 | 37869 ft | 500 kts | 295° |
| 2026-05-07 15:03 | 6.84194 | 93.88626 | 37871 ft | 500 kts | 295° |
| 2026-05-07 15:04 | 6.87051 | 93.82240 | 37874 ft | 501 kts | 295° |
| 2026-05-07 15:04 | 6.89911 | 93.75845 | 37864 ft | 502 kts | 294° |
| 2026-05-07 15:05 | 6.92774 | 93.69437 | 37874 ft | 502 kts | 294° |
| 2026-05-07 15:05 | 6.95642 | 93.63017 | 37871 ft | 503 kts | 294° |
| 2026-05-07 15:06 | 6.98511 | 93.56593 | 37874 ft | 503 kts | 294° |
| 2026-05-07 15:06 | 7.01382 | 93.50163 | 37874 ft | 504 kts | 294° |
| 2026-05-07 15:07 | 7.04256 | 93.43723 | 37876 ft | 504 kts | 294° |
| 2026-05-07 15:07 | 7.07128 | 93.37283 | 37874 ft | 504 kts | 294° |
| 2026-05-07 15:08 | 7.09998 | 93.30845 | 37873 ft | 504 kts | 294° |
| 2026-05-07 15:08 | 7.12868 | 93.24405 | 37872 ft | 504 kts | 294° |
| 2026-05-07 15:09 | 7.15735 | 93.17969 | 37873 ft | 504 kts | 294° |
| 2026-05-07 15:09 | 7.18599 | 93.11538 | 37873 ft | 503 kts | 294° |
| 2026-05-07 15:10 | 7.21460 | 93.05107 | 37868 ft | 503 kts | 294° |
| 2026-05-07 15:10 | 7.24301 | 92.98721 | 37873 ft | 503 kts | 295° |
| 2026-05-07 15:11 | 7.27158 | 92.92297 | 37873 ft | 503 kts | 295° |
| 2026-05-07 15:11 | 7.30014 | 92.85871 | 37871 ft | 503 kts | 295° |
| 2026-05-07 15:12 | 7.32871 | 92.79441 | 37870 ft | 503 kts | 295° |
| 2026-05-07 15:12 | 7.35725 | 92.73013 | 37871 ft | 503 kts | 295° |
| 2026-05-07 15:13 | 7.38578 | 92.66585 | 37868 ft | 503 kts | 294° |
| 2026-05-07 15:13 | 7.41432 | 92.60152 | 37872 ft | 503 kts | 294° |
| 2026-05-07 15:14 | 7.44287 | 92.53716 | 37869 ft | 503 kts | 294° |
| 2026-05-07 15:14 | 7.47143 | 92.47272 | 37872 ft | 504 kts | 294° |
| 2026-05-07 15:15 | 7.49997 | 92.40829 | 37867 ft | 504 kts | 294° |
| 2026-05-07 15:15 | 7.52853 | 92.34381 | 37868 ft | 504 kts | 294° |
| 2026-05-07 15:16 | 7.55709 | 92.27929 | 37870 ft | 504 kts | 294° |
| 2026-05-07 15:16 | 7.58560 | 92.21483 | 37875 ft | 503 kts | 294° |
| 2026-05-07 15:17 | 7.61404 | 92.15052 | 37861 ft | 502 kts | 295° |
| 2026-05-07 15:17 | 7.64227 | 92.08667 | 37870 ft | 502 kts | 295° |
| 2026-05-07 15:18 | 7.67062 | 92.02250 | 37874 ft | 501 kts | 295° |
| 2026-05-07 15:18 | 7.69900 | 91.95825 | 37876 ft | 502 kts | 295° |
| 2026-05-07 15:19 | 7.72737 | 91.89395 | 37872 ft | 502 kts | 295° |
| 2026-05-07 15:19 | 7.75575 | 91.82962 | 37873 ft | 502 kts | 295° |
| 2026-05-07 15:20 | 7.78410 | 91.76531 | 37875 ft | 502 kts | 295° |
| 2026-05-07 15:20 | 7.81250 | 91.70086 | 37874 ft | 503 kts | 295° |
| 2026-05-07 15:21 | 7.84115 | 91.63658 | 37873 ft | 503 kts | 295° |
| 2026-05-07 15:21 | 7.87053 | 91.57259 | 37875 ft | 503 kts | 296° |
| 2026-05-07 15:22 | 7.89997 | 91.50863 | 37878 ft | 503 kts | 296° |
| 2026-05-07 15:22 | 7.92931 | 91.44460 | 37874 ft | 503 kts | 295° |
| 2026-05-07 15:23 | 7.95859 | 91.38050 | 37874 ft | 503 kts | 295° |
| 2026-05-07 15:23 | 7.98782 | 91.31642 | 37870 ft | 503 kts | 295° |
| 2026-05-07 15:24 | 8.01704 | 91.25234 | 37875 ft | 503 kts | 295° |
| 2026-05-07 15:24 | 8.04626 | 91.18825 | 37872 ft | 503 kts | 295° |
| 2026-05-07 15:25 | 8.07528 | 91.12458 | 37879 ft | 503 kts | 295° |
| 2026-05-07 15:25 | 8.10445 | 91.06055 | 37874 ft | 502 kts | 295° |
| 2026-05-07 15:26 | 8.13363 | 90.99646 | 37872 ft | 502 kts | 295° |
| 2026-05-07 15:26 | 8.16276 | 90.93245 | 37875 ft | 502 kts | 295° |
| 2026-05-07 15:27 | 8.19186 | 90.86846 | 37870 ft | 502 kts | 295° |
| 2026-05-07 15:27 | 8.22095 | 90.80449 | 37875 ft | 501 kts | 295° |
| 2026-05-07 15:28 | 8.25002 | 90.74050 | 37878 ft | 501 kts | 295° |
| 2026-05-07 15:28 | 8.27910 | 90.67649 | 37877 ft | 502 kts | 295° |
| 2026-05-07 15:29 | 8.30818 | 90.61242 | 37877 ft | 502 kts | 295° |
| 2026-05-07 15:29 | 8.33724 | 90.54838 | 37876 ft | 502 kts | 295° |
| 2026-05-07 15:30 | 8.36632 | 90.48425 | 37869 ft | 503 kts | 295° |
| 2026-05-07 15:30 | 8.39547 | 90.41995 | 37875 ft | 504 kts | 295° |
| 2026-05-07 15:31 | 8.42446 | 90.35595 | 37875 ft | 505 kts | 295° |
| 2026-05-07 15:31 | 8.45371 | 90.29135 | 37876 ft | 507 kts | 295° |
| 2026-05-07 15:32 | 8.48303 | 90.22657 | 37883 ft | 508 kts | 295° |
| 2026-05-07 15:32 | 8.51241 | 90.16161 | 37879 ft | 508 kts | 295° |
| 2026-05-07 15:33 | 8.54179 | 90.09663 | 37877 ft | 509 kts | 295° |
| 2026-05-07 15:33 | 8.57116 | 90.03163 | 37878 ft | 509 kts | 295° |
| 2026-05-07 15:34 | 8.60051 | 89.96664 | 37870 ft | 508 kts | 295° |
| 2026-05-07 15:34 | 8.62986 | 89.90162 | 37874 ft | 509 kts | 295° |
| 2026-05-07 15:35 | 8.65922 | 89.83656 | 37877 ft | 509 kts | 295° |
| 2026-05-07 15:35 | 8.68858 | 89.77145 | 37874 ft | 509 kts | 295° |
| 2026-05-07 15:36 | 8.71792 | 89.70634 | 37875 ft | 509 kts | 295° |
| 2026-05-07 15:36 | 8.74724 | 89.64124 | 37880 ft | 509 kts | 296° |
| 2026-05-07 15:37 | 8.77654 | 89.57615 | 37881 ft | 509 kts | 296° |
| 2026-05-07 15:37 | 8.80583 | 89.51107 | 37874 ft | 508 kts | 296° |
| 2026-05-07 15:38 | 8.83507 | 89.44605 | 37874 ft | 508 kts | 296° |
| 2026-05-07 15:38 | 8.86430 | 89.38102 | 37875 ft | 508 kts | 296° |
| 2026-05-07 15:39 | 8.89348 | 89.31606 | 37874 ft | 508 kts | 296° |
| 2026-05-07 15:39 | 8.92266 | 89.25106 | 37877 ft | 508 kts | 296° |
| 2026-05-07 15:40 | 8.95185 | 89.18602 | 37872 ft | 508 kts | 295° |
| 2026-05-07 15:40 | 8.98082 | 89.12141 | 37872 ft | 508 kts | 295° |
| 2026-05-07 15:41 | 9.01000 | 89.05633 | 37876 ft | 508 kts | 295° |
| 2026-05-07 15:41 | 9.03916 | 88.99123 | 37869 ft | 508 kts | 295° |
| 2026-05-07 15:42 | 9.06836 | 88.92602 | 37868 ft | 509 kts | 295° |
| 2026-05-07 15:42 | 9.09753 | 88.86082 | 37871 ft | 508 kts | 295° |
| 2026-05-07 15:43 | 9.12663 | 88.79576 | 37873 ft | 507 kts | 295° |
| 2026-05-07 15:43 | 9.15565 | 88.73084 | 37865 ft | 506 kts | 295° |
| 2026-05-07 15:44 | 9.18457 | 88.66609 | 37869 ft | 504 kts | 295° |
| 2026-05-07 15:44 | 9.21344 | 88.60142 | 37867 ft | 504 kts | 295° |
| 2026-05-07 15:45 | 9.24226 | 88.53685 | 37871 ft | 503 kts | 295° |
| 2026-05-07 15:45 | 9.27104 | 88.47232 | 37874 ft | 503 kts | 295° |
| 2026-05-07 15:46 | 9.31421 | 88.37545 | 37874 ft | 503 kts | 295° |
| 2026-05-07 15:47 | 9.34294 | 88.31094 | 37868 ft | 503 kts | 295° |
| 2026-05-07 15:47 | 9.37148 | 88.24682 | 37868 ft | 503 kts | 295° |
| 2026-05-07 15:48 | 9.40016 | 88.18234 | 37874 ft | 502 kts | 295° |
| 2026-05-07 15:48 | 9.42884 | 88.11783 | 37870 ft | 502 kts | 295° |
| 2026-05-07 15:49 | 9.45774 | 88.05279 | 37864 ft | 503 kts | 295° |
| 2026-05-07 15:49 | 9.48640 | 87.98826 | 37867 ft | 502 kts | 295° |
| 2026-05-07 15:50 | 9.51480 | 87.92427 | 37871 ft | 502 kts | 295° |
| 2026-05-07 15:50 | 9.54338 | 87.85984 | 37867 ft | 501 kts | 295° |
| 2026-05-07 15:51 | 9.57191 | 87.79546 | 37868 ft | 501 kts | 295° |
| 2026-05-07 15:51 | 9.60046 | 87.73102 | 37868 ft | 501 kts | 295° |
| 2026-05-07 15:52 | 9.62893 | 87.66672 | 37863 ft | 501 kts | 295° |
| 2026-05-07 15:52 | 9.65745 | 87.60227 | 37873 ft | 502 kts | 295° |
| 2026-05-07 15:53 | 9.68601 | 87.53769 | 37866 ft | 502 kts | 295° |
| 2026-05-07 15:53 | 9.70979 | 87.48388 | 37866 ft | 503 kts | 295° |
| 2026-05-07 15:54 | 9.73839 | 87.41912 | 37868 ft | 503 kts | 295° |
| 2026-05-07 15:54 | 9.76699 | 87.35434 | 37868 ft | 504 kts | 295° |
| 2026-05-07 15:55 | 9.79620 | 87.28975 | 37867 ft | 504 kts | 295° |
| 2026-05-07 15:55 | 9.82592 | 87.22542 | 37869 ft | 504 kts | 296° |
| 2026-05-07 15:56 | 9.85561 | 87.16103 | 37867 ft | 505 kts | 296° |
| 2026-05-07 15:56 | 9.88524 | 87.09645 | 37872 ft | 505 kts | 296° |
| 2026-05-07 15:57 | 9.91482 | 87.03181 | 37865 ft | 506 kts | 296° |
| 2026-05-07 15:57 | 9.94442 | 86.96708 | 37873 ft | 506 kts | 296° |
| 2026-05-07 15:58 | 9.97402 | 86.90235 | 37862 ft | 506 kts | 296° |
| 2026-05-07 15:58 | 10.00365 | 86.83750 | 37871 ft | 507 kts | 296° |
| 2026-05-07 15:59 | 10.03327 | 86.77264 | 37870 ft | 507 kts | 296° |
| 2026-05-07 15:59 | 10.06290 | 86.70772 | 37867 ft | 507 kts | 296° |
| 2026-05-07 16:00 | 10.09253 | 86.64275 | 37873 ft | 507 kts | 296° |
| 2026-05-07 16:00 | 10.12216 | 86.57773 | 37876 ft | 507 kts | 296° |
| 2026-05-07 16:01 | 10.15162 | 86.51307 | 37873 ft | 507 kts | 296° |
| 2026-05-07 16:01 | 10.18122 | 86.44807 | 37870 ft | 507 kts | 296° |
| 2026-05-07 16:02 | 10.21079 | 86.38306 | 37872 ft | 507 kts | 295° |
| 2026-05-07 16:02 | 10.24029 | 86.31818 | 37866 ft | 506 kts | 295° |
| 2026-05-07 16:03 | 10.26975 | 86.25336 | 37870 ft | 505 kts | 295° |
| 2026-05-07 16:03 | 10.29915 | 86.18861 | 37870 ft | 505 kts | 295° |
| 2026-05-07 16:04 | 10.32852 | 86.12390 | 37866 ft | 505 kts | 295° |
| 2026-05-07 16:04 | 10.35792 | 86.05909 | 37870 ft | 506 kts | 295° |
| 2026-05-07 16:05 | 10.38735 | 85.99415 | 37871 ft | 507 kts | 295° |
| 2026-05-07 16:05 | 10.41684 | 85.92906 | 37872 ft | 507 kts | 295° |
| 2026-05-07 16:06 | 10.44634 | 85.86390 | 37868 ft | 508 kts | 295° |
| 2026-05-07 16:06 | 10.47588 | 85.79861 | 37871 ft | 508 kts | 295° |
| 2026-05-07 16:07 | 10.50539 | 85.73334 | 37873 ft | 509 kts | 295° |
| 2026-05-07 16:07 | 10.53471 | 85.66844 | 37869 ft | 509 kts | 295° |
| 2026-05-07 16:08 | 10.56440 | 85.60270 | 37874 ft | 508 kts | 295° |
| 2026-05-07 16:08 | 10.59359 | 85.53801 | 37867 ft | 506 kts | 295° |
| 2026-05-07 16:09 | 10.62289 | 85.47303 | 37871 ft | 505 kts | 295° |
| 2026-05-07 16:09 | 10.65211 | 85.40820 | 37873 ft | 504 kts | 295° |
| 2026-05-07 16:10 | 10.68128 | 85.34344 | 37873 ft | 504 kts | 295° |
| 2026-05-07 16:10 | 10.71042 | 85.27869 | 37870 ft | 503 kts | 295° |
| 2026-05-07 16:11 | 10.73955 | 85.21393 | 37872 ft | 504 kts | 295° |
| 2026-05-07 16:11 | 10.76869 | 85.14911 | 37871 ft | 504 kts | 295° |
| 2026-05-07 16:12 | 10.79782 | 85.08425 | 37870 ft | 505 kts | 295° |
| 2026-05-07 16:12 | 10.82699 | 85.01929 | 37875 ft | 505 kts | 295° |
| 2026-05-07 16:13 | 10.85614 | 84.95430 | 37869 ft | 505 kts | 295° |
| 2026-05-07 16:13 | 10.88531 | 84.88924 | 37872 ft | 505 kts | 295° |
| 2026-05-07 16:14 | 10.91447 | 84.82416 | 37884 ft | 505 kts | 295° |
| 2026-05-07 16:14 | 10.94354 | 84.75922 | 37865 ft | 504 kts | 295° |
| 2026-05-07 16:15 | 10.97256 | 84.69435 | 37865 ft | 503 kts | 295° |
| 2026-05-07 16:15 | 11.00151 | 84.62960 | 37861 ft | 502 kts | 295° |
| 2026-05-07 16:16 | 11.03038 | 84.56499 | 37867 ft | 501 kts | 295° |
| 2026-05-07 16:16 | 11.05905 | 84.50080 | 37872 ft | 501 kts | 295° |
| 2026-05-07 16:17 | 11.08786 | 84.43622 | 37869 ft | 501 kts | 295° |
| 2026-05-07 16:17 | 11.11668 | 84.37159 | 37867 ft | 501 kts | 295° |
| 2026-05-07 16:18 | 11.14550 | 84.30692 | 37867 ft | 502 kts | 295° |
| 2026-05-07 16:18 | 11.17430 | 84.24225 | 37870 ft | 501 kts | 294° |
| 2026-05-07 16:19 | 11.20308 | 84.17758 | 37866 ft | 501 kts | 294° |
| 2026-05-07 16:19 | 11.23179 | 84.11302 | 37871 ft | 500 kts | 294° |
| 2026-05-07 16:20 | 11.26048 | 84.04847 | 37870 ft | 500 kts | 294° |
| 2026-05-07 16:20 | 11.28911 | 83.98400 | 37865 ft | 499 kts | 294° |
| 2026-05-07 16:21 | 11.31774 | 83.91949 | 37862 ft | 500 kts | 294° |
| 2026-05-07 16:21 | 11.34634 | 83.85500 | 37869 ft | 500 kts | 294° |
| 2026-05-07 16:22 | 11.37498 | 83.79036 | 37866 ft | 500 kts | 294° |
| 2026-05-07 16:22 | 11.40362 | 83.72570 | 37867 ft | 501 kts | 294° |
| 2026-05-07 16:23 | 11.43228 | 83.66094 | 37874 ft | 501 kts | 294° |
| 2026-05-07 16:23 | 11.46094 | 83.59612 | 37863 ft | 502 kts | 294° |
| 2026-05-07 16:24 | 11.48961 | 83.53124 | 37867 ft | 502 kts | 294° |
| 2026-05-07 16:24 | 11.51824 | 83.46641 | 37859 ft | 501 kts | 294° |
| 2026-05-07 16:25 | 11.54682 | 83.40163 | 37869 ft | 500 kts | 294° |
| 2026-05-07 16:25 | 11.57560 | 83.33713 | 37863 ft | 499 kts | 297° |
| 2026-05-07 16:26 | 11.61205 | 83.27706 | 37860 ft | 498 kts | 308° |
| 2026-05-07 16:26 | 11.65445 | 83.22122 | 37856 ft | 498 kts | 308° |
| 2026-05-07 16:27 | 11.69695 | 83.16550 | 37865 ft | 498 kts | 308° |
| 2026-05-07 16:27 | 11.73918 | 83.10949 | 37861 ft | 498 kts | 308° |
| 2026-05-07 16:28 | 11.78122 | 83.05334 | 37869 ft | 498 kts | 308° |
| 2026-05-07 16:28 | 11.82323 | 82.99713 | 37872 ft | 498 kts | 308° |
| 2026-05-07 16:29 | 11.86525 | 82.94091 | 37869 ft | 498 kts | 308° |
| 2026-05-07 16:29 | 11.90727 | 82.88469 | 37868 ft | 498 kts | 308° |
| 2026-05-07 16:30 | 11.94904 | 82.82876 | 37862 ft | 498 kts | 308° |
| 2026-05-07 16:30 | 11.99136 | 82.77208 | 37870 ft | 499 kts | 308° |
| 2026-05-07 16:31 | 12.03309 | 82.71613 | 37869 ft | 499 kts | 308° |
| 2026-05-07 16:31 | 12.07512 | 82.65976 | 37865 ft | 499 kts | 308° |
| 2026-05-07 16:32 | 12.11713 | 82.60339 | 37872 ft | 498 kts | 308° |
| 2026-05-07 16:32 | 12.15914 | 82.54698 | 37866 ft | 499 kts | 308° |
| 2026-05-07 16:33 | 12.20111 | 82.49059 | 37868 ft | 498 kts | 308° |
| 2026-05-07 16:33 | 12.24307 | 82.43419 | 37870 ft | 499 kts | 308° |
| 2026-05-07 16:34 | 12.28504 | 82.37773 | 37871 ft | 499 kts | 307° |
| 2026-05-07 16:34 | 12.32711 | 82.32111 | 37870 ft | 500 kts | 307° |
| 2026-05-07 16:35 | 12.36916 | 82.26447 | 37875 ft | 500 kts | 307° |
| 2026-05-07 16:35 | 12.41117 | 82.20784 | 37864 ft | 500 kts | 307° |
| 2026-05-07 16:36 | 12.45319 | 82.15119 | 37871 ft | 499 kts | 307° |
| 2026-05-07 16:36 | 12.49509 | 82.09463 | 37869 ft | 498 kts | 307° |
| 2026-05-07 16:37 | 12.53687 | 82.03823 | 37864 ft | 497 kts | 307° |
| 2026-05-07 16:37 | 12.55591 | 82.00887 | 37855 ft | 495 kts | 295° |
| 2026-05-07 16:37 | 12.56693 | 81.97583 | 37871 ft | 490 kts | 281° |
| 2026-05-07 16:38 | 12.58018 | 81.90693 | 37871 ft | 498 kts | 280° |
| 2026-05-07 16:38 | 12.59389 | 81.83742 | 37865 ft | 493 kts | 281° |
| 2026-05-07 16:38 | 12.60078 | 81.80400 | 37855 ft | 479 kts | 281° |
| 2026-05-07 16:39 | 12.60770 | 81.77103 | 37849 ft | 470 kts | 281° |
| 2026-05-07 16:39 | 12.62148 | 81.70594 | 37860 ft | 466 kts | 281° |
| 2026-05-07 16:39 | 12.62831 | 81.67365 | 37632 ft | 462 kts | 281° |
| 2026-05-07 16:40 | 12.63504 | 81.64183 | 36977 ft | 451 kts | 281° |
| 2026-05-07 16:40 | 12.64161 | 81.61070 | 35977 ft | 444 kts | 280° |
| 2026-05-07 16:40 | 12.64809 | 81.57995 | 34951 ft | 440 kts | 281° |
| 2026-05-07 16:40 | 12.65459 | 81.54898 | 34172 ft | 447 kts | 281° |
| 2026-05-07 16:41 | 12.66100 | 81.51843 | 33543 ft | 431 kts | 281° |
| 2026-05-07 16:41 | 12.66724 | 81.48878 | 32645 ft | 422 kts | 280° |
| 2026-05-07 16:41 | 12.67338 | 81.45957 | 31624 ft | 418 kts | 280° |
| 2026-05-07 16:41 | 12.67946 | 81.43058 | 30605 ft | 415 kts | 280° |
| 2026-05-07 16:42 | 12.68353 | 81.41116 | 29955 ft | 412 kts | 280° |
| 2026-05-07 16:42 | 12.68949 | 81.38271 | 28935 ft | 406 kts | 280° |
| 2026-05-07 16:42 | 12.69536 | 81.35470 | 27999 ft | 398 kts | 280° |
| 2026-05-07 16:42 | 12.70111 | 81.32723 | 27122 ft | 391 kts | 281° |
| 2026-05-07 16:43 | 12.70678 | 81.30020 | 26231 ft | 385 kts | 280° |
| 2026-05-07 16:43 | 12.71235 | 81.27355 | 25352 ft | 381 kts | 280° |
| 2026-05-07 16:43 | 12.71786 | 81.24719 | 24501 ft | 376 kts | 280° |
| 2026-05-07 16:43 | 12.72330 | 81.22113 | 23699 ft | 372 kts | 281° |
| 2026-05-07 16:44 | 12.72866 | 81.19545 | 22838 ft | 366 kts | 281° |
| 2026-05-07 16:44 | 12.73393 | 81.17019 | 21995 ft | 359 kts | 281° |
| 2026-05-07 16:44 | 12.73910 | 81.14545 | 21204 ft | 352 kts | 281° |
| 2026-05-07 16:44 | 12.74410 | 81.12147 | 20426 ft | 346 kts | 281° |
| 2026-05-07 16:45 | 12.74914 | 81.09728 | 19661 ft | 340 kts | 281° |
| 2026-05-07 16:45 | 12.75397 | 81.07410 | 18928 ft | 335 kts | 281° |
| 2026-05-07 16:45 | 12.75878 | 81.05101 | 18233 ft | 328 kts | 280° |
| 2026-05-07 16:45 | 12.76347 | 81.02842 | 17441 ft | 322 kts | 281° |
| 2026-05-07 16:46 | 12.76814 | 81.00592 | 16473 ft | 324 kts | 281° |
| 2026-05-07 16:46 | 12.77281 | 80.98340 | 15618 ft | 323 kts | 282° |
| 2026-05-07 16:46 | 12.77746 | 80.96102 | 14840 ft | 319 kts | 282° |
| 2026-05-07 16:46 | 12.78203 | 80.93900 | 14230 ft | 312 kts | 282° |
| 2026-05-07 16:47 | 12.78650 | 80.91748 | 13607 ft | 307 kts | 282° |
| 2026-05-07 16:47 | 12.79091 | 80.89618 | 12852 ft | 304 kts | 283° |
| 2026-05-07 16:47 | 12.79528 | 80.87517 | 12217 ft | 299 kts | 283° |
| 2026-05-07 16:47 | 12.79956 | 80.85447 | 11534 ft | 296 kts | 283° |
| 2026-05-07 16:48 | 12.80381 | 80.83395 | 10871 ft | 293 kts | 284° |
| 2026-05-07 16:48 | 12.80975 | 80.81422 | 10199 ft | 288 kts | 296° |
| 2026-05-07 16:48 | 12.81844 | 80.79589 | 9569 ft | 284 kts | 299° |
| 2026-05-07 16:48 | 12.82771 | 80.77816 | 8909 ft | 280 kts | 300° |
| 2026-05-07 16:49 | 12.83691 | 80.76065 | 8245 ft | 278 kts | 300° |
| 2026-05-07 16:49 | 12.84607 | 80.74305 | 7720 ft | 283 kts | 299° |
| 2026-05-07 16:49 | 12.85519 | 80.72527 | 7548 ft | 280 kts | 300° |
| 2026-05-07 16:49 | 12.86412 | 80.70771 | 7406 ft | 276 kts | 300° |
| 2026-05-07 16:50 | 12.87291 | 80.69031 | 7175 ft | 275 kts | 300° |
| 2026-05-07 16:50 | 12.88169 | 80.67287 | 6985 ft | 275 kts | 299° |
| 2026-05-07 16:50 | 12.89036 | 80.65558 | 6924 ft | 272 kts | 299° |
| 2026-05-07 16:50 | 12.89897 | 80.63830 | 6875 ft | 273 kts | 299° |
| 2026-05-07 16:51 | 12.90766 | 80.62086 | 6866 ft | 275 kts | 300° |
| 2026-05-07 16:51 | 12.91634 | 80.60346 | 6847 ft | 274 kts | 299° |
| 2026-05-07 16:51 | 12.92486 | 80.58633 | 6829 ft | 273 kts | 299° |
| 2026-05-07 16:51 | 12.93358 | 80.56881 | 6850 ft | 271 kts | 299° |
| 2026-05-07 16:52 | 12.94203 | 80.55182 | 6831 ft | 271 kts | 299° |
| 2026-05-07 16:52 | 12.95070 | 80.53438 | 6850 ft | 271 kts | 299° |
| 2026-05-07 16:52 | 12.95914 | 80.51740 | 6850 ft | 271 kts | 299° |
| 2026-05-07 16:52 | 12.96771 | 80.50018 | 6846 ft | 272 kts | 299° |
| 2026-05-07 16:53 | 12.97629 | 80.48292 | 6850 ft | 272 kts | 299° |
| 2026-05-07 16:53 | 12.98490 | 80.46559 | 6853 ft | 273 kts | 299° |
| 2026-05-07 16:53 | 12.99353 | 80.44823 | 6852 ft | 274 kts | 299° |
| 2026-05-07 16:53 | 13.00218 | 80.43083 | 6853 ft | 275 kts | 299° |
| 2026-05-07 16:54 | 13.01084 | 80.41337 | 6854 ft | 275 kts | 299° |
| 2026-05-07 16:54 | 13.01955 | 80.39584 | 6853 ft | 276 kts | 299° |
| 2026-05-07 16:54 | 13.02825 | 80.37830 | 6845 ft | 276 kts | 299° |
| 2026-05-07 16:54 | 13.03695 | 80.36077 | 6850 ft | 276 kts | 299° |
| 2026-05-07 16:55 | 13.04563 | 80.34328 | 6853 ft | 276 kts | 299° |
| 2026-05-07 16:55 | 13.05432 | 80.32576 | 6850 ft | 275 kts | 299° |
| 2026-05-07 16:55 | 13.06299 | 80.30828 | 6850 ft | 274 kts | 299° |
| 2026-05-07 16:55 | 13.07163 | 80.29085 | 6851 ft | 274 kts | 299° |
| 2026-05-07 16:56 | 13.08026 | 80.27345 | 6850 ft | 273 kts | 299° |
| 2026-05-07 16:56 | 13.08887 | 80.25609 | 6854 ft | 273 kts | 299° |
| 2026-05-07 16:56 | 13.10574 | 80.22134 | 6834 ft | 269 kts | 291° |
| 2026-05-07 16:57 | 13.10766 | 80.20221 | 6867 ft | 278 kts | 262° |
| 2026-05-07 16:57 | 13.10185 | 80.18328 | 6867 ft | 276 kts | 250° |
| 2026-05-07 16:57 | 13.09519 | 80.16525 | 6838 ft | 264 kts | 251° |
| 2026-05-07 16:57 | 13.08893 | 80.14809 | 6834 ft | 250 kts | 251° |
| 2026-05-07 16:58 | 13.08293 | 80.13156 | 6855 ft | 246 kts | 251° |
| 2026-05-07 16:58 | 13.07706 | 80.11530 | 6860 ft | 247 kts | 251° |
| 2026-05-07 16:58 | 13.07103 | 80.09850 | 6856 ft | 248 kts | 251° |
| 2026-05-07 16:58 | 13.06514 | 80.08210 | 6861 ft | 249 kts | 251° |
| 2026-05-07 16:59 | 13.05916 | 80.06542 | 6860 ft | 249 kts | 251° |
| 2026-05-07 16:59 | 13.05312 | 80.04873 | 6781 ft | 253 kts | 250° |
| 2026-05-07 16:59 | 13.04663 | 80.03166 | 6416 ft | 259 kts | 250° |
| 2026-05-07 16:59 | 13.04003 | 80.01449 | 6088 ft | 259 kts | 250° |
| 2026-05-07 17:00 | 13.03343 | 79.99728 | 5776 ft | 259 kts | 250° |
| 2026-05-07 17:00 | 13.02685 | 79.98012 | 5473 ft | 258 kts | 250° |
| 2026-05-07 17:00 | 13.02042 | 79.96332 | 5355 ft | 248 kts | 249° |
| 2026-05-07 17:00 | 13.01423 | 79.94717 | 5229 ft | 238 kts | 250° |
| 2026-05-07 17:01 | 13.00832 | 79.93174 | 5144 ft | 226 kts | 249° |
| 2026-05-07 17:01 | 13.00118 | 79.91824 | 5055 ft | 208 kts | 222° |
| 2026-05-07 17:01 | 12.98851 | 79.91161 | 4998 ft | 208 kts | 184° |
| 2026-05-07 17:01 | 12.97481 | 79.91366 | 4800 ft | 193 kts | 155° |
| 2026-05-07 17:02 | 12.96250 | 79.91886 | 4596 ft | 192 kts | 154° |
| 2026-05-07 17:02 | 12.95083 | 79.92515 | 4313 ft | 186 kts | 142° |
| 2026-05-07 17:02 | 12.94136 | 79.93344 | 4231 ft | 174 kts | 130° |
| 2026-05-07 17:02 | 12.93391 | 79.94369 | 4062 ft | 185 kts | 115° |
| 2026-05-07 17:03 | 12.92936 | 79.95588 | 3842 ft | 181 kts | 101° |
| 2026-05-07 17:03 | 12.92768 | 79.96832 | 3641 ft | 171 kts | 91° |
| 2026-05-07 17:03 | 12.92789 | 79.98019 | 3386 ft | 165 kts | 85° |
| 2026-05-07 17:03 | 12.92906 | 79.99159 | 3152 ft | 157 kts | 81° |
| 2026-05-07 17:04 | 12.93118 | 80.00218 | 2936 ft | 146 kts | 76° |
| 2026-05-07 17:04 | 12.93352 | 80.01186 | 2753 ft | 136 kts | 77° |
| 2026-05-07 17:04 | 12.93594 | 80.02120 | 2627 ft | 138 kts | 74° |
| 2026-05-07 17:04 | 12.93886 | 80.03041 | 2463 ft | 134 kts | 71° |
| 2026-05-07 17:05 | 12.94201 | 80.03938 | 2275 ft | 134 kts | 71° |
| 2026-05-07 17:05 | 12.94529 | 80.04838 | 2104 ft | 136 kts | 71° |
| 2026-05-07 17:05 | 12.94865 | 80.05747 | 1930 ft | 137 kts | 71° |
| 2026-05-07 17:05 | 12.95204 | 80.06657 | 1751 ft | 136 kts | 70° |
| 2026-05-07 17:06 | 12.95531 | 80.07568 | 1550 ft | 136 kts | 71° |
| 2026-05-07 17:06 | 12.95872 | 80.08472 | 1367 ft | 135 kts | 71° |
| 2026-05-07 17:06 | 12.96184 | 80.09388 | 1206 ft | 138 kts | 71° |
| 2026-05-07 17:06 | 12.96531 | 80.10295 | 1087 ft | 137 kts | 70° |
| 2026-05-07 17:07 | 12.96890 | 80.11221 | 899 ft | 140 kts | 69° |
| 2026-05-07 17:07 | 12.97239 | 80.12140 | 729 ft | 139 kts | 70° |
| 2026-05-07 17:07 | 12.97585 | 80.13071 | 548 ft | 139 kts | 71° |
| 2026-05-07 17:07 | 12.97931 | 80.13993 | 367 ft | 138 kts | 70° |
| 2026-05-07 17:08 | 12.98276 | 80.14894 | 167 ft | 137 kts | 70° |
| 2026-05-07 17:08 | 12.98610 | 80.15808 | 50 ft | 133 kts | 72° |
| 2026-05-07 17:08 | 12.98897 | 80.16583 | 51 ft | 95 kts | 69° |
| 2026-05-07 17:08 | 12.99081 | 80.17069 | 49 ft | 51 kts | 69° |
| 2026-05-07 17:09 | 12.99156 | 80.17275 | 50 ft | 19 kts | 71° |
| 2026-05-07 17:09 | 12.99170 | 80.17412 | 50 ft | 16 kts | 92° |
| 2026-05-07 17:09 | 12.99164 | 80.17507 | 55 ft | 11 kts | 99° |
| 2026-05-07 17:09 | 12.99134 | 80.17574 | 51 ft | 11 kts | 143° |
| 2026-05-07 17:10 | 12.99075 | 80.17542 | 49 ft | 11 kts | 246° |
| 2026-05-07 17:10 | 12.99044 | 80.17465 | 49 ft | 12 kts | 248° |
| 2026-05-07 17:10 | 12.99010 | 80.17377 | 50 ft | 14 kts | 248° |
| 2026-05-07 17:10 | 12.98974 | 80.17281 | 47 ft | 15 kts | 244° |
| 2026-05-07 17:11 | 12.98928 | 80.17186 | 50 ft | 12 kts | 246° |
| 2026-05-07 17:11 | 12.98903 | 80.17125 | 47 ft | 10 kts | 248° |
| 2026-05-07 17:11 | 12.98875 | 80.17054 | 49 ft | 11 kts | 248° |
| 2026-05-07 17:11 | 12.98844 | 80.16974 | 48 ft | 13 kts | 250° |
| 2026-05-07 17:12 | 12.98812 | 80.16884 | 48 ft | 14 kts | 249° |
| 2026-05-07 17:12 | 12.98778 | 80.16789 | 49 ft | 15 kts | 249° |
| 2026-05-07 17:12 | 12.98740 | 80.16687 | 49 ft | 16 kts | 249° |
| 2026-05-07 17:12 | 12.98699 | 80.16581 | 47 ft | 13 kts | 248° |
| 2026-05-07 17:13 | 12.98666 | 80.16491 | 52 ft | 14 kts | 249° |
| 2026-05-07 17:13 | 12.98633 | 80.16401 | 51 ft | 14 kts | 247° |
| 2026-05-07 17:13 | 12.98655 | 80.16322 | 49 ft | 10 kts | 307° |
| 2026-05-07 17:13 | 12.98635 | 80.16261 | 48 ft | 11 kts | 218° |
| 2026-05-07 17:14 | 12.98569 | 80.16231 | 49 ft | 11 kts | 159° |
| 2026-05-07 17:14 | 12.98520 | 80.16294 | 46 ft | 11 kts | 121° |
| 2026-05-07 17:14 | 12.98479 | 80.16364 | 51 ft | 12 kts | 119° |
| 2026-05-07 17:14 | 12.98434 | 80.16357 | 51 ft | 8 kts | 236° |
| 2026-05-07 17:15 | 12.98415 | 80.16306 | 47 ft | 7 kts | 265° |
| 2026-05-07 17:15 | 12.98432 | 80.16275 | 48 ft | 2 kts | 318° |
| 2026-05-07 17:15 | 12.98451 | 80.16262 | 49 ft | 5 kts | 334° |
| 2026-05-07 17:15 | 12.98458 | 80.16259 | 47 ft | 0 kts | 335° |